<?xml version="1.0" encoding="UTF-8" standalone="no" ?>
<gpx xmlns="http://www.topografix.com/GPX/1/1" xmlns:xsi="http://www.w3.org/2001/XMLSchema-instance" xsi:schemaLocation="http://www.topografix.com/GPX/1/1 http://www.topografix.com/GPX/1/1/gpx.xsd" version="1.1" creator="VisuGPX - https://www.visugpx.com">
  <metadata>
    <name>Ventoux Melette clare</name>
    <desc><![CDATA[Stationnement au parking des Melettes. Chemin vers Perrache pour rejoindre ensuite la combe d'Angiou que nous descendons jusqu'à la combe de Clare. Nous avons ensuite rejoint le Rat sans chemin marqué mais sans difficulté. Jolie rando surtout à l'automne.]]></desc>
  </metadata>
  <wpt lat="44.1347" lon="5.30085">
    <ele>1147</ele>
    <name><![CDATA[Point de passage 1]]></name>
    <type><![CDATA[GENERIC]]></type>
  </wpt>
  <wpt lat="44.13459" lon="5.3004">
    <ele>1142</ele>
    <name><![CDATA[Point de passage 2]]></name>
    <type><![CDATA[GENERIC]]></type>
  </wpt>
  <trk>
    <name><![CDATA[Randonnée du 12/09/2025 à 09:45]]></name>
    <trkseg>
      <trkpt lat="44.1347" lon="5.30085">
        <ele>1147</ele>
        <time>2025-09-12T07:45:23.000Z</time>
      </trkpt>
      <trkpt lat="44.13471" lon="5.30069">
        <ele>1144</ele>
        <time>2025-09-12T07:45:26.000Z</time>
      </trkpt>
      <trkpt lat="44.13466" lon="5.30041">
        <ele>1142</ele>
        <time>2025-09-12T07:47:55.000Z</time>
      </trkpt>
      <trkpt lat="44.13457" lon="5.30012">
        <ele>1141</ele>
        <time>2025-09-12T07:48:13.000Z</time>
      </trkpt>
      <trkpt lat="44.13452" lon="5.29982">
        <ele>1139</ele>
        <time>2025-09-12T07:48:36.000Z</time>
      </trkpt>
      <trkpt lat="44.13451" lon="5.2995">
        <ele>1137</ele>
        <time>2025-09-12T07:48:57.000Z</time>
      </trkpt>
      <trkpt lat="44.13443" lon="5.29922">
        <ele>1140</ele>
        <time>2025-09-12T07:49:17.000Z</time>
      </trkpt>
      <trkpt lat="44.13439" lon="5.29891">
        <ele>1137</ele>
        <time>2025-09-12T07:49:47.000Z</time>
      </trkpt>
      <trkpt lat="44.13431" lon="5.29862">
        <ele>1135</ele>
        <time>2025-09-12T07:50:09.000Z</time>
      </trkpt>
      <trkpt lat="44.13417" lon="5.29835">
        <ele>1138</ele>
        <time>2025-09-12T07:50:21.000Z</time>
      </trkpt>
      <trkpt lat="44.13404" lon="5.29808">
        <ele>1141</ele>
        <time>2025-09-12T07:50:41.000Z</time>
      </trkpt>
      <trkpt lat="44.13388" lon="5.29783">
        <ele>1139</ele>
        <time>2025-09-12T07:50:59.000Z</time>
      </trkpt>
      <trkpt lat="44.1337" lon="5.29762">
        <ele>1139</ele>
        <time>2025-09-12T07:51:38.000Z</time>
      </trkpt>
      <trkpt lat="44.13353" lon="5.29741">
        <ele>1140</ele>
        <time>2025-09-12T07:52:00.000Z</time>
      </trkpt>
      <trkpt lat="44.13337" lon="5.29718">
        <ele>1138</ele>
        <time>2025-09-12T07:52:32.000Z</time>
      </trkpt>
      <trkpt lat="44.13318" lon="5.29699">
        <ele>1139</ele>
        <time>2025-09-12T07:53:25.000Z</time>
      </trkpt>
      <trkpt lat="44.13298" lon="5.29682">
        <ele>1140</ele>
        <time>2025-09-12T07:53:44.000Z</time>
      </trkpt>
      <trkpt lat="44.13276" lon="5.29677">
        <ele>1140</ele>
        <time>2025-09-12T07:54:03.000Z</time>
      </trkpt>
      <trkpt lat="44.13253" lon="5.29677">
        <ele>1139</ele>
        <time>2025-09-12T07:54:23.000Z</time>
      </trkpt>
      <trkpt lat="44.13232" lon="5.29687">
        <ele>1138</ele>
        <time>2025-09-12T07:54:45.000Z</time>
      </trkpt>
      <trkpt lat="44.13211" lon="5.29702">
        <ele>1138</ele>
        <time>2025-09-12T07:55:04.000Z</time>
      </trkpt>
      <trkpt lat="44.13191" lon="5.29715">
        <ele>1137</ele>
        <time>2025-09-12T07:55:23.000Z</time>
      </trkpt>
      <trkpt lat="44.13172" lon="5.29731">
        <ele>1136</ele>
        <time>2025-09-12T07:55:43.000Z</time>
      </trkpt>
      <trkpt lat="44.13152" lon="5.29744">
        <ele>1136</ele>
        <time>2025-09-12T07:56:05.000Z</time>
      </trkpt>
      <trkpt lat="44.13133" lon="5.29761">
        <ele>1136</ele>
        <time>2025-09-12T07:56:20.000Z</time>
      </trkpt>
      <trkpt lat="44.13116" lon="5.29781">
        <ele>1136</ele>
        <time>2025-09-12T07:56:47.000Z</time>
      </trkpt>
      <trkpt lat="44.13098" lon="5.29804">
        <ele>1137</ele>
        <time>2025-09-12T07:57:13.000Z</time>
      </trkpt>
      <trkpt lat="44.13082" lon="5.29827">
        <ele>1136</ele>
        <time>2025-09-12T07:57:33.000Z</time>
      </trkpt>
      <trkpt lat="44.13065" lon="5.29851">
        <ele>1137</ele>
        <time>2025-09-12T07:57:51.000Z</time>
      </trkpt>
      <trkpt lat="44.13051" lon="5.29875">
        <ele>1136</ele>
        <time>2025-09-12T07:58:07.000Z</time>
      </trkpt>
      <trkpt lat="44.13047" lon="5.29905">
        <ele>1136</ele>
        <time>2025-09-12T07:58:29.000Z</time>
      </trkpt>
      <trkpt lat="44.13049" lon="5.29938">
        <ele>1137</ele>
        <time>2025-09-12T07:58:49.000Z</time>
      </trkpt>
      <trkpt lat="44.13059" lon="5.29968">
        <ele>1137</ele>
        <time>2025-09-12T07:59:07.000Z</time>
      </trkpt>
      <trkpt lat="44.13072" lon="5.29995">
        <ele>1138</ele>
        <time>2025-09-12T07:59:29.000Z</time>
      </trkpt>
      <trkpt lat="44.13086" lon="5.30019">
        <ele>1137</ele>
        <time>2025-09-12T07:59:51.000Z</time>
      </trkpt>
      <trkpt lat="44.13102" lon="5.30043">
        <ele>1138</ele>
        <time>2025-09-12T08:00:11.000Z</time>
      </trkpt>
      <trkpt lat="44.13114" lon="5.30072">
        <ele>1137</ele>
        <time>2025-09-12T08:00:29.000Z</time>
      </trkpt>
      <trkpt lat="44.13124" lon="5.30101">
        <ele>1137</ele>
        <time>2025-09-12T08:00:47.000Z</time>
      </trkpt>
      <trkpt lat="44.13131" lon="5.30132">
        <ele>1137</ele>
        <time>2025-09-12T08:01:09.000Z</time>
      </trkpt>
      <trkpt lat="44.13133" lon="5.30166">
        <ele>1137</ele>
        <time>2025-09-12T08:01:27.000Z</time>
      </trkpt>
      <trkpt lat="44.13136" lon="5.30198">
        <ele>1136</ele>
        <time>2025-09-12T08:01:49.000Z</time>
      </trkpt>
      <trkpt lat="44.1314" lon="5.3023">
        <ele>1136</ele>
        <time>2025-09-12T08:02:11.000Z</time>
      </trkpt>
      <trkpt lat="44.13138" lon="5.30263">
        <ele>1136</ele>
        <time>2025-09-12T08:02:31.000Z</time>
      </trkpt>
      <trkpt lat="44.13137" lon="5.30297">
        <ele>1136</ele>
        <time>2025-09-12T08:02:51.000Z</time>
      </trkpt>
      <trkpt lat="44.13138" lon="5.3033">
        <ele>1136</ele>
        <time>2025-09-12T08:03:15.000Z</time>
      </trkpt>
      <trkpt lat="44.13142" lon="5.30363">
        <ele>1136</ele>
        <time>2025-09-12T08:03:35.000Z</time>
      </trkpt>
      <trkpt lat="44.13147" lon="5.30396">
        <ele>1135</ele>
        <time>2025-09-12T08:03:55.000Z</time>
      </trkpt>
      <trkpt lat="44.13153" lon="5.30428">
        <ele>1135</ele>
        <time>2025-09-12T08:04:17.000Z</time>
      </trkpt>
      <trkpt lat="44.13158" lon="5.30461">
        <ele>1135</ele>
        <time>2025-09-12T08:04:35.000Z</time>
      </trkpt>
      <trkpt lat="44.13164" lon="5.30493">
        <ele>1134</ele>
        <time>2025-09-12T08:04:57.000Z</time>
      </trkpt>
      <trkpt lat="44.13173" lon="5.30522">
        <ele>1135</ele>
        <time>2025-09-12T08:05:19.000Z</time>
      </trkpt>
      <trkpt lat="44.13182" lon="5.30551">
        <ele>1134</ele>
        <time>2025-09-12T08:05:39.000Z</time>
      </trkpt>
      <trkpt lat="44.13191" lon="5.3058">
        <ele>1134</ele>
        <time>2025-09-12T08:05:55.000Z</time>
      </trkpt>
      <trkpt lat="44.13201" lon="5.30609">
        <ele>1133</ele>
        <time>2025-09-12T08:06:17.000Z</time>
      </trkpt>
      <trkpt lat="44.1321" lon="5.30639">
        <ele>1134</ele>
        <time>2025-09-12T08:06:39.000Z</time>
      </trkpt>
      <trkpt lat="44.13217" lon="5.30669">
        <ele>1133</ele>
        <time>2025-09-12T08:06:55.000Z</time>
      </trkpt>
      <trkpt lat="44.13222" lon="5.30699">
        <ele>1134</ele>
        <time>2025-09-12T08:07:17.000Z</time>
      </trkpt>
      <trkpt lat="44.13225" lon="5.30732">
        <ele>1133</ele>
        <time>2025-09-12T08:07:37.000Z</time>
      </trkpt>
      <trkpt lat="44.13222" lon="5.30761">
        <ele>1132</ele>
        <time>2025-09-12T08:10:02.000Z</time>
      </trkpt>
      <trkpt lat="44.13203" lon="5.30768">
        <ele>1131</ele>
        <time>2025-09-12T08:19:06.000Z</time>
      </trkpt>
      <trkpt lat="44.13182" lon="5.30756">
        <ele>1129</ele>
        <time>2025-09-12T08:19:38.000Z</time>
      </trkpt>
      <trkpt lat="44.13161" lon="5.30739">
        <ele>1128</ele>
        <time>2025-09-12T08:19:57.000Z</time>
      </trkpt>
      <trkpt lat="44.13142" lon="5.30722">
        <ele>1126</ele>
        <time>2025-09-12T08:20:24.000Z</time>
      </trkpt>
      <trkpt lat="44.13124" lon="5.30702">
        <ele>1124</ele>
        <time>2025-09-12T08:20:47.000Z</time>
      </trkpt>
      <trkpt lat="44.13104" lon="5.30689">
        <ele>1124</ele>
        <time>2025-09-12T08:21:10.000Z</time>
      </trkpt>
      <trkpt lat="44.13082" lon="5.3068">
        <ele>1123</ele>
        <time>2025-09-12T08:21:32.000Z</time>
      </trkpt>
      <trkpt lat="44.1306" lon="5.30671">
        <ele>1122</ele>
        <time>2025-09-12T08:21:48.000Z</time>
      </trkpt>
      <trkpt lat="44.13038" lon="5.3066">
        <ele>1120</ele>
        <time>2025-09-12T08:22:10.000Z</time>
      </trkpt>
      <trkpt lat="44.13016" lon="5.30649">
        <ele>1119</ele>
        <time>2025-09-12T08:22:30.000Z</time>
      </trkpt>
      <trkpt lat="44.12994" lon="5.3064">
        <ele>1119</ele>
        <time>2025-09-12T08:22:52.000Z</time>
      </trkpt>
      <trkpt lat="44.12974" lon="5.30623">
        <ele>1118</ele>
        <time>2025-09-12T08:24:53.000Z</time>
      </trkpt>
      <trkpt lat="44.12959" lon="5.30601">
        <ele>1117</ele>
        <time>2025-09-12T08:25:15.000Z</time>
      </trkpt>
      <trkpt lat="44.12942" lon="5.3058">
        <ele>1117</ele>
        <time>2025-09-12T08:26:35.000Z</time>
      </trkpt>
      <trkpt lat="44.12923" lon="5.30561">
        <ele>1116</ele>
        <time>2025-09-12T08:27:07.000Z</time>
      </trkpt>
      <trkpt lat="44.12906" lon="5.30546">
        <ele>1115</ele>
        <time>2025-09-12T08:27:38.000Z</time>
      </trkpt>
      <trkpt lat="44.12893" lon="5.30566">
        <ele>1114</ele>
        <time>2025-09-12T08:28:38.000Z</time>
      </trkpt>
      <trkpt lat="44.12882" lon="5.30586">
        <ele>1114</ele>
        <time>2025-09-12T08:28:58.000Z</time>
      </trkpt>
      <trkpt lat="44.12872" lon="5.30568">
        <ele>1114</ele>
        <time>2025-09-12T08:31:09.000Z</time>
      </trkpt>
      <trkpt lat="44.12851" lon="5.30568">
        <ele>1112</ele>
        <time>2025-09-12T08:31:32.000Z</time>
      </trkpt>
      <trkpt lat="44.1283" lon="5.30579">
        <ele>1110</ele>
        <time>2025-09-12T08:31:57.000Z</time>
      </trkpt>
      <trkpt lat="44.12807" lon="5.30586">
        <ele>1107</ele>
        <time>2025-09-12T08:32:22.000Z</time>
      </trkpt>
      <trkpt lat="44.12784" lon="5.30595">
        <ele>1104</ele>
        <time>2025-09-12T08:32:47.000Z</time>
      </trkpt>
      <trkpt lat="44.12761" lon="5.30602">
        <ele>1102</ele>
        <time>2025-09-12T08:33:13.000Z</time>
      </trkpt>
      <trkpt lat="44.12739" lon="5.30604">
        <ele>1099</ele>
        <time>2025-09-12T08:33:35.000Z</time>
      </trkpt>
      <trkpt lat="44.12717" lon="5.30596">
        <ele>1098</ele>
        <time>2025-09-12T08:34:04.000Z</time>
      </trkpt>
      <trkpt lat="44.12695" lon="5.30583">
        <ele>1095</ele>
        <time>2025-09-12T08:34:29.000Z</time>
      </trkpt>
      <trkpt lat="44.12678" lon="5.30563">
        <ele>1094</ele>
        <time>2025-09-12T08:34:51.000Z</time>
      </trkpt>
      <trkpt lat="44.12665" lon="5.30538">
        <ele>1093</ele>
        <time>2025-09-12T08:35:15.000Z</time>
      </trkpt>
      <trkpt lat="44.12654" lon="5.30509">
        <ele>1092</ele>
        <time>2025-09-12T08:35:35.000Z</time>
      </trkpt>
      <trkpt lat="44.12645" lon="5.3048">
        <ele>1091</ele>
        <time>2025-09-12T08:35:59.000Z</time>
      </trkpt>
      <trkpt lat="44.12641" lon="5.30448">
        <ele>1089</ele>
        <time>2025-09-12T08:36:25.000Z</time>
      </trkpt>
      <trkpt lat="44.12638" lon="5.30414">
        <ele>1087</ele>
        <time>2025-09-12T08:36:47.000Z</time>
      </trkpt>
      <trkpt lat="44.12636" lon="5.30383">
        <ele>1086</ele>
        <time>2025-09-12T08:37:09.000Z</time>
      </trkpt>
      <trkpt lat="44.12636" lon="5.30352">
        <ele>1084</ele>
        <time>2025-09-12T08:37:32.000Z</time>
      </trkpt>
      <trkpt lat="44.12639" lon="5.30319">
        <ele>1082</ele>
        <time>2025-09-12T08:37:55.000Z</time>
      </trkpt>
      <trkpt lat="44.12639" lon="5.30294">
        <ele>1081</ele>
        <time>2025-09-12T08:38:19.000Z</time>
      </trkpt>
      <trkpt lat="44.12626" lon="5.3031">
        <ele>1080</ele>
        <time>2025-09-12T08:40:13.000Z</time>
      </trkpt>
      <trkpt lat="44.12618" lon="5.3034">
        <ele>1080</ele>
        <time>2025-09-12T08:40:34.000Z</time>
      </trkpt>
      <trkpt lat="44.12609" lon="5.30371">
        <ele>1081</ele>
        <time>2025-09-12T08:40:59.000Z</time>
      </trkpt>
      <trkpt lat="44.12601" lon="5.30402">
        <ele>1081</ele>
        <time>2025-09-12T08:41:20.000Z</time>
      </trkpt>
      <trkpt lat="44.12594" lon="5.30432">
        <ele>1081</ele>
        <time>2025-09-12T08:41:38.000Z</time>
      </trkpt>
      <trkpt lat="44.12592" lon="5.30464">
        <ele>1082</ele>
        <time>2025-09-12T08:41:55.000Z</time>
      </trkpt>
      <trkpt lat="44.12589" lon="5.30496">
        <ele>1083</ele>
        <time>2025-09-12T08:43:13.000Z</time>
      </trkpt>
      <trkpt lat="44.12583" lon="5.30528">
        <ele>1085</ele>
        <time>2025-09-12T08:43:44.000Z</time>
      </trkpt>
      <trkpt lat="44.12573" lon="5.30555">
        <ele>1086</ele>
        <time>2025-09-12T08:44:07.000Z</time>
      </trkpt>
      <trkpt lat="44.12562" lon="5.30585">
        <ele>1088</ele>
        <time>2025-09-12T08:44:24.000Z</time>
      </trkpt>
      <trkpt lat="44.12554" lon="5.30614">
        <ele>1090</ele>
        <time>2025-09-12T08:44:54.000Z</time>
      </trkpt>
      <trkpt lat="44.12554" lon="5.30644">
        <ele>1091</ele>
        <time>2025-09-12T08:45:16.000Z</time>
      </trkpt>
      <trkpt lat="44.12564" lon="5.30663">
        <ele>1092</ele>
        <time>2025-09-12T08:46:19.000Z</time>
      </trkpt>
      <trkpt lat="44.12551" lon="5.30659">
        <ele>1092</ele>
        <time>2025-09-12T08:46:52.000Z</time>
      </trkpt>
      <trkpt lat="44.12541" lon="5.30682">
        <ele>1093</ele>
        <time>2025-09-12T08:47:14.000Z</time>
      </trkpt>
      <trkpt lat="44.12529" lon="5.30708">
        <ele>1094</ele>
        <time>2025-09-12T08:47:38.000Z</time>
      </trkpt>
      <trkpt lat="44.12519" lon="5.30738">
        <ele>1096</ele>
        <time>2025-09-12T08:48:04.000Z</time>
      </trkpt>
      <trkpt lat="44.1251" lon="5.30769">
        <ele>1096</ele>
        <time>2025-09-12T08:48:25.000Z</time>
      </trkpt>
      <trkpt lat="44.125" lon="5.30799">
        <ele>1097</ele>
        <time>2025-09-12T08:48:45.000Z</time>
      </trkpt>
      <trkpt lat="44.12491" lon="5.30828">
        <ele>1097</ele>
        <time>2025-09-12T08:49:33.000Z</time>
      </trkpt>
      <trkpt lat="44.1249" lon="5.30861">
        <ele>1097</ele>
        <time>2025-09-12T08:51:06.000Z</time>
      </trkpt>
      <trkpt lat="44.12485" lon="5.30892">
        <ele>1097</ele>
        <time>2025-09-12T08:51:32.000Z</time>
      </trkpt>
      <trkpt lat="44.12477" lon="5.30921">
        <ele>1097</ele>
        <time>2025-09-12T08:51:54.000Z</time>
      </trkpt>
      <trkpt lat="44.12475" lon="5.30946">
        <ele>1096</ele>
        <time>2025-09-12T08:52:36.000Z</time>
      </trkpt>
      <trkpt lat="44.12458" lon="5.30933">
        <ele>1095</ele>
        <time>2025-09-12T08:54:29.000Z</time>
      </trkpt>
      <trkpt lat="44.12439" lon="5.30929">
        <ele>1093</ele>
        <time>2025-09-12T08:55:01.000Z</time>
      </trkpt>
      <trkpt lat="44.12437" lon="5.30955">
        <ele>1091</ele>
        <time>2025-09-12T08:55:29.000Z</time>
      </trkpt>
      <trkpt lat="44.12445" lon="5.30986">
        <ele>1088</ele>
        <time>2025-09-12T08:56:01.000Z</time>
      </trkpt>
      <trkpt lat="44.12449" lon="5.31019">
        <ele>1086</ele>
        <time>2025-09-12T08:56:41.000Z</time>
      </trkpt>
      <trkpt lat="44.12457" lon="5.31048">
        <ele>1084</ele>
        <time>2025-09-12T08:57:03.000Z</time>
      </trkpt>
      <trkpt lat="44.12461" lon="5.31079">
        <ele>1079</ele>
        <time>2025-09-12T08:57:26.000Z</time>
      </trkpt>
      <trkpt lat="44.1247" lon="5.31108">
        <ele>1075</ele>
        <time>2025-09-12T08:57:53.000Z</time>
      </trkpt>
      <trkpt lat="44.12477" lon="5.31138">
        <ele>1069</ele>
        <time>2025-09-12T08:58:37.000Z</time>
      </trkpt>
      <trkpt lat="44.12482" lon="5.31169">
        <ele>1067</ele>
        <time>2025-09-12T08:59:09.000Z</time>
      </trkpt>
      <trkpt lat="44.12482" lon="5.31201">
        <ele>1062</ele>
        <time>2025-09-12T08:59:33.000Z</time>
      </trkpt>
      <trkpt lat="44.12478" lon="5.31231">
        <ele>1058</ele>
        <time>2025-09-12T09:00:07.000Z</time>
      </trkpt>
      <trkpt lat="44.12475" lon="5.31262">
        <ele>1054</ele>
        <time>2025-09-12T09:00:33.000Z</time>
      </trkpt>
      <trkpt lat="44.12472" lon="5.31293">
        <ele>1051</ele>
        <time>2025-09-12T09:00:56.000Z</time>
      </trkpt>
      <trkpt lat="44.12471" lon="5.31325">
        <ele>1048</ele>
        <time>2025-09-12T09:01:25.000Z</time>
      </trkpt>
      <trkpt lat="44.12469" lon="5.31357">
        <ele>1044</ele>
        <time>2025-09-12T09:02:01.000Z</time>
      </trkpt>
      <trkpt lat="44.1247" lon="5.31389">
        <ele>1039</ele>
        <time>2025-09-12T09:02:28.000Z</time>
      </trkpt>
      <trkpt lat="44.12478" lon="5.31421">
        <ele>1037</ele>
        <time>2025-09-12T09:02:59.000Z</time>
      </trkpt>
      <trkpt lat="44.12491" lon="5.31448">
        <ele>1031</ele>
        <time>2025-09-12T09:03:29.000Z</time>
      </trkpt>
      <trkpt lat="44.12511" lon="5.31468">
        <ele>1028</ele>
        <time>2025-09-12T09:04:07.000Z</time>
      </trkpt>
      <trkpt lat="44.12528" lon="5.31487">
        <ele>1027</ele>
        <time>2025-09-12T09:04:29.000Z</time>
      </trkpt>
      <trkpt lat="44.12541" lon="5.31504">
        <ele>1024</ele>
        <time>2025-09-12T09:04:47.000Z</time>
      </trkpt>
      <trkpt lat="44.12523" lon="5.31506">
        <ele>1022</ele>
        <time>2025-09-12T09:07:22.000Z</time>
      </trkpt>
      <trkpt lat="44.12495" lon="5.31497">
        <ele>1018</ele>
        <time>2025-09-12T09:08:08.000Z</time>
      </trkpt>
      <trkpt lat="44.12473" lon="5.31488">
        <ele>1016</ele>
        <time>2025-09-12T09:08:42.000Z</time>
      </trkpt>
      <trkpt lat="44.12458" lon="5.31466">
        <ele>1016</ele>
        <time>2025-09-12T09:09:10.000Z</time>
      </trkpt>
      <trkpt lat="44.12439" lon="5.31452">
        <ele>1012</ele>
        <time>2025-09-12T09:09:30.000Z</time>
      </trkpt>
      <trkpt lat="44.12419" lon="5.31437">
        <ele>1008</ele>
        <time>2025-09-12T09:09:56.000Z</time>
      </trkpt>
      <trkpt lat="44.12398" lon="5.31421">
        <ele>1006</ele>
        <time>2025-09-12T09:10:22.000Z</time>
      </trkpt>
      <trkpt lat="44.12381" lon="5.31401">
        <ele>1003</ele>
        <time>2025-09-12T09:10:54.000Z</time>
      </trkpt>
      <trkpt lat="44.12378" lon="5.31371">
        <ele>1002</ele>
        <time>2025-09-12T09:11:16.000Z</time>
      </trkpt>
      <trkpt lat="44.12367" lon="5.31344">
        <ele>999</ele>
        <time>2025-09-12T09:11:44.000Z</time>
      </trkpt>
      <trkpt lat="44.12351" lon="5.31322">
        <ele>996</ele>
        <time>2025-09-12T09:12:10.000Z</time>
      </trkpt>
      <trkpt lat="44.12336" lon="5.31298">
        <ele>994</ele>
        <time>2025-09-12T09:12:32.000Z</time>
      </trkpt>
      <trkpt lat="44.1232" lon="5.31276">
        <ele>993</ele>
        <time>2025-09-12T09:12:58.000Z</time>
      </trkpt>
      <trkpt lat="44.12305" lon="5.31252">
        <ele>990</ele>
        <time>2025-09-12T09:13:26.000Z</time>
      </trkpt>
      <trkpt lat="44.12287" lon="5.31233">
        <ele>988</ele>
        <time>2025-09-12T09:13:52.000Z</time>
      </trkpt>
      <trkpt lat="44.12271" lon="5.31209">
        <ele>987</ele>
        <time>2025-09-12T09:14:18.000Z</time>
      </trkpt>
      <trkpt lat="44.12254" lon="5.31188">
        <ele>985</ele>
        <time>2025-09-12T09:14:40.000Z</time>
      </trkpt>
      <trkpt lat="44.12238" lon="5.31163">
        <ele>983</ele>
        <time>2025-09-12T09:15:05.000Z</time>
      </trkpt>
      <trkpt lat="44.1222" lon="5.31146">
        <ele>981</ele>
        <time>2025-09-12T09:15:34.000Z</time>
      </trkpt>
      <trkpt lat="44.12201" lon="5.31124">
        <ele>979</ele>
        <time>2025-09-12T09:16:04.000Z</time>
      </trkpt>
      <trkpt lat="44.12179" lon="5.3111">
        <ele>977</ele>
        <time>2025-09-12T09:16:30.000Z</time>
      </trkpt>
      <trkpt lat="44.12162" lon="5.3109">
        <ele>976</ele>
        <time>2025-09-12T09:16:56.000Z</time>
      </trkpt>
      <trkpt lat="44.12152" lon="5.31061">
        <ele>974</ele>
        <time>2025-09-12T09:17:22.000Z</time>
      </trkpt>
      <trkpt lat="44.12138" lon="5.31038">
        <ele>973</ele>
        <time>2025-09-12T09:17:44.000Z</time>
      </trkpt>
      <trkpt lat="44.1212" lon="5.31021">
        <ele>970</ele>
        <time>2025-09-12T09:18:14.000Z</time>
      </trkpt>
      <trkpt lat="44.12101" lon="5.31004">
        <ele>968</ele>
        <time>2025-09-12T09:18:39.000Z</time>
      </trkpt>
      <trkpt lat="44.12081" lon="5.30987">
        <ele>967</ele>
        <time>2025-09-12T09:19:06.000Z</time>
      </trkpt>
      <trkpt lat="44.12063" lon="5.30967">
        <ele>966</ele>
        <time>2025-09-12T09:19:30.000Z</time>
      </trkpt>
      <trkpt lat="44.12047" lon="5.30947">
        <ele>964</ele>
        <time>2025-09-12T09:19:54.000Z</time>
      </trkpt>
      <trkpt lat="44.12027" lon="5.30931">
        <ele>963</ele>
        <time>2025-09-12T09:20:20.000Z</time>
      </trkpt>
      <trkpt lat="44.12006" lon="5.30916">
        <ele>961</ele>
        <time>2025-09-12T09:20:40.000Z</time>
      </trkpt>
      <trkpt lat="44.11986" lon="5.30902">
        <ele>960</ele>
        <time>2025-09-12T09:21:04.000Z</time>
      </trkpt>
      <trkpt lat="44.11965" lon="5.30892">
        <ele>959</ele>
        <time>2025-09-12T09:21:29.000Z</time>
      </trkpt>
      <trkpt lat="44.11946" lon="5.30873">
        <ele>957</ele>
        <time>2025-09-12T09:21:54.000Z</time>
      </trkpt>
      <trkpt lat="44.11924" lon="5.30859">
        <ele>955</ele>
        <time>2025-09-12T09:22:16.000Z</time>
      </trkpt>
      <trkpt lat="44.11905" lon="5.30841">
        <ele>953</ele>
        <time>2025-09-12T09:22:44.000Z</time>
      </trkpt>
      <trkpt lat="44.11886" lon="5.30823">
        <ele>952</ele>
        <time>2025-09-12T09:23:08.000Z</time>
      </trkpt>
      <trkpt lat="44.11865" lon="5.30819">
        <ele>950</ele>
        <time>2025-09-12T09:23:33.000Z</time>
      </trkpt>
      <trkpt lat="44.11844" lon="5.30829">
        <ele>949</ele>
        <time>2025-09-12T09:25:40.000Z</time>
      </trkpt>
      <trkpt lat="44.11832" lon="5.30855">
        <ele>951</ele>
        <time>2025-09-12T09:26:23.000Z</time>
      </trkpt>
      <trkpt lat="44.11829" lon="5.30885">
        <ele>952</ele>
        <time>2025-09-12T09:27:04.000Z</time>
      </trkpt>
      <trkpt lat="44.11832" lon="5.30917">
        <ele>954</ele>
        <time>2025-09-12T09:27:22.000Z</time>
      </trkpt>
      <trkpt lat="44.11829" lon="5.30947">
        <ele>956</ele>
        <time>2025-09-12T09:27:56.000Z</time>
      </trkpt>
      <trkpt lat="44.11829" lon="5.30977">
        <ele>958</ele>
        <time>2025-09-12T09:28:24.000Z</time>
      </trkpt>
      <trkpt lat="44.11844" lon="5.31001">
        <ele>959</ele>
        <time>2025-09-12T09:28:46.000Z</time>
      </trkpt>
      <trkpt lat="44.11856" lon="5.31027">
        <ele>961</ele>
        <time>2025-09-12T09:29:08.000Z</time>
      </trkpt>
      <trkpt lat="44.11858" lon="5.31058">
        <ele>963</ele>
        <time>2025-09-12T09:29:27.000Z</time>
      </trkpt>
      <trkpt lat="44.11861" lon="5.31088">
        <ele>964</ele>
        <time>2025-09-12T09:29:50.000Z</time>
      </trkpt>
      <trkpt lat="44.11871" lon="5.31116">
        <ele>966</ele>
        <time>2025-09-12T09:30:21.000Z</time>
      </trkpt>
      <trkpt lat="44.1188" lon="5.31144">
        <ele>970</ele>
        <time>2025-09-12T09:30:42.000Z</time>
      </trkpt>
      <trkpt lat="44.11897" lon="5.31162">
        <ele>969</ele>
        <time>2025-09-12T09:31:03.000Z</time>
      </trkpt>
      <trkpt lat="44.11907" lon="5.31188">
        <ele>970</ele>
        <time>2025-09-12T09:31:37.000Z</time>
      </trkpt>
      <trkpt lat="44.11905" lon="5.31221">
        <ele>975</ele>
        <time>2025-09-12T09:35:37.000Z</time>
      </trkpt>
      <trkpt lat="44.1191" lon="5.31251">
        <ele>975</ele>
        <time>2025-09-12T09:36:04.000Z</time>
      </trkpt>
      <trkpt lat="44.11919" lon="5.31281">
        <ele>976</ele>
        <time>2025-09-12T09:36:34.000Z</time>
      </trkpt>
      <trkpt lat="44.11926" lon="5.31312">
        <ele>977</ele>
        <time>2025-09-12T09:36:59.000Z</time>
      </trkpt>
      <trkpt lat="44.11933" lon="5.31341">
        <ele>978</ele>
        <time>2025-09-12T09:37:24.000Z</time>
      </trkpt>
      <trkpt lat="44.11934" lon="5.31373">
        <ele>980</ele>
        <time>2025-09-12T09:37:45.000Z</time>
      </trkpt>
      <trkpt lat="44.1194" lon="5.314">
        <ele>982</ele>
        <time>2025-09-12T09:38:13.000Z</time>
      </trkpt>
      <trkpt lat="44.11929" lon="5.31427">
        <ele>983</ele>
        <time>2025-09-12T09:38:35.000Z</time>
      </trkpt>
      <trkpt lat="44.11914" lon="5.31451">
        <ele>987</ele>
        <time>2025-09-12T09:39:05.000Z</time>
      </trkpt>
      <trkpt lat="44.119" lon="5.31475">
        <ele>986</ele>
        <time>2025-09-12T09:39:23.000Z</time>
      </trkpt>
      <trkpt lat="44.11882" lon="5.31494">
        <ele>988</ele>
        <time>2025-09-12T09:40:03.000Z</time>
      </trkpt>
      <trkpt lat="44.11861" lon="5.31508">
        <ele>990</ele>
        <time>2025-09-12T09:40:23.000Z</time>
      </trkpt>
      <trkpt lat="44.11839" lon="5.31523">
        <ele>991</ele>
        <time>2025-09-12T09:40:39.000Z</time>
      </trkpt>
      <trkpt lat="44.11818" lon="5.31536">
        <ele>992</ele>
        <time>2025-09-12T09:41:17.000Z</time>
      </trkpt>
      <trkpt lat="44.11802" lon="5.3156">
        <ele>995</ele>
        <time>2025-09-12T09:41:51.000Z</time>
      </trkpt>
      <trkpt lat="44.11792" lon="5.3159">
        <ele>998</ele>
        <time>2025-09-12T09:42:20.000Z</time>
      </trkpt>
      <trkpt lat="44.11783" lon="5.31619">
        <ele>1001</ele>
        <time>2025-09-12T09:42:51.000Z</time>
      </trkpt>
      <trkpt lat="44.11778" lon="5.31651">
        <ele>1003</ele>
        <time>2025-09-12T09:43:21.000Z</time>
      </trkpt>
      <trkpt lat="44.11771" lon="5.31681">
        <ele>1005</ele>
        <time>2025-09-12T09:43:45.000Z</time>
      </trkpt>
      <trkpt lat="44.11757" lon="5.31705">
        <ele>1005</ele>
        <time>2025-09-12T09:44:04.000Z</time>
      </trkpt>
      <trkpt lat="44.11748" lon="5.31734">
        <ele>1007</ele>
        <time>2025-09-12T09:44:31.000Z</time>
      </trkpt>
      <trkpt lat="44.11738" lon="5.31765">
        <ele>1009</ele>
        <time>2025-09-12T09:44:49.000Z</time>
      </trkpt>
      <trkpt lat="44.11726" lon="5.31793">
        <ele>1011</ele>
        <time>2025-09-12T09:45:13.000Z</time>
      </trkpt>
      <trkpt lat="44.11716" lon="5.31822">
        <ele>1013</ele>
        <time>2025-09-12T09:45:42.000Z</time>
      </trkpt>
      <trkpt lat="44.11705" lon="5.31851">
        <ele>1014</ele>
        <time>2025-09-12T09:49:07.000Z</time>
      </trkpt>
      <trkpt lat="44.11706" lon="5.31882">
        <ele>1017</ele>
        <time>2025-09-12T09:49:30.000Z</time>
      </trkpt>
      <trkpt lat="44.11714" lon="5.31913">
        <ele>1017</ele>
        <time>2025-09-12T09:49:55.000Z</time>
      </trkpt>
      <trkpt lat="44.11728" lon="5.31939">
        <ele>1018</ele>
        <time>2025-09-12T09:50:18.000Z</time>
      </trkpt>
      <trkpt lat="44.11743" lon="5.31962">
        <ele>1019</ele>
        <time>2025-09-12T09:50:46.000Z</time>
      </trkpt>
      <trkpt lat="44.1176" lon="5.31982">
        <ele>1022</ele>
        <time>2025-09-12T09:51:11.000Z</time>
      </trkpt>
      <trkpt lat="44.11768" lon="5.32012">
        <ele>1024</ele>
        <time>2025-09-12T09:51:34.000Z</time>
      </trkpt>
      <trkpt lat="44.11779" lon="5.32039">
        <ele>1026</ele>
        <time>2025-09-12T09:52:05.000Z</time>
      </trkpt>
      <trkpt lat="44.11797" lon="5.32059">
        <ele>1029</ele>
        <time>2025-09-12T09:52:29.000Z</time>
      </trkpt>
      <trkpt lat="44.11816" lon="5.32076">
        <ele>1031</ele>
        <time>2025-09-12T09:53:03.000Z</time>
      </trkpt>
      <trkpt lat="44.11834" lon="5.32096">
        <ele>1031</ele>
        <time>2025-09-12T09:53:27.000Z</time>
      </trkpt>
      <trkpt lat="44.11854" lon="5.32112">
        <ele>1033</ele>
        <time>2025-09-12T09:53:55.000Z</time>
      </trkpt>
      <trkpt lat="44.11873" lon="5.32129">
        <ele>1033</ele>
        <time>2025-09-12T09:54:17.000Z</time>
      </trkpt>
      <trkpt lat="44.11892" lon="5.32147">
        <ele>1035</ele>
        <time>2025-09-12T09:56:11.000Z</time>
      </trkpt>
      <trkpt lat="44.11907" lon="5.32171">
        <ele>1036</ele>
        <time>2025-09-12T09:56:35.000Z</time>
      </trkpt>
      <trkpt lat="44.1192" lon="5.32199">
        <ele>1038</ele>
        <time>2025-09-12T09:57:01.000Z</time>
      </trkpt>
      <trkpt lat="44.11932" lon="5.32226">
        <ele>1040</ele>
        <time>2025-09-12T09:57:28.000Z</time>
      </trkpt>
      <trkpt lat="44.11941" lon="5.32256">
        <ele>1042</ele>
        <time>2025-09-12T09:58:23.000Z</time>
      </trkpt>
      <trkpt lat="44.11942" lon="5.32288">
        <ele>1043</ele>
        <time>2025-09-12T09:58:52.000Z</time>
      </trkpt>
      <trkpt lat="44.1194" lon="5.32319">
        <ele>1044</ele>
        <time>2025-09-12T09:59:22.000Z</time>
      </trkpt>
      <trkpt lat="44.11944" lon="5.32349">
        <ele>1046</ele>
        <time>2025-09-12T09:59:50.000Z</time>
      </trkpt>
      <trkpt lat="44.11943" lon="5.3238">
        <ele>1047</ele>
        <time>2025-09-12T10:00:04.000Z</time>
      </trkpt>
      <trkpt lat="44.11947" lon="5.32412">
        <ele>1050</ele>
        <time>2025-09-12T10:00:32.000Z</time>
      </trkpt>
      <trkpt lat="44.11952" lon="5.32445">
        <ele>1053</ele>
        <time>2025-09-12T10:00:54.000Z</time>
      </trkpt>
      <trkpt lat="44.11963" lon="5.32472">
        <ele>1055</ele>
        <time>2025-09-12T10:01:24.000Z</time>
      </trkpt>
      <trkpt lat="44.11972" lon="5.32501">
        <ele>1059</ele>
        <time>2025-09-12T10:01:53.000Z</time>
      </trkpt>
      <trkpt lat="44.11986" lon="5.32525">
        <ele>1058</ele>
        <time>2025-09-12T10:02:22.000Z</time>
      </trkpt>
      <trkpt lat="44.11997" lon="5.32551">
        <ele>1058</ele>
        <time>2025-09-12T10:03:06.000Z</time>
      </trkpt>
      <trkpt lat="44.12013" lon="5.32576">
        <ele>1059</ele>
        <time>2025-09-12T10:03:28.000Z</time>
      </trkpt>
      <trkpt lat="44.12031" lon="5.32598">
        <ele>1061</ele>
        <time>2025-09-12T10:04:00.000Z</time>
      </trkpt>
      <trkpt lat="44.12049" lon="5.32621">
        <ele>1063</ele>
        <time>2025-09-12T10:04:29.000Z</time>
      </trkpt>
      <trkpt lat="44.12067" lon="5.3264">
        <ele>1064</ele>
        <time>2025-09-12T10:04:47.000Z</time>
      </trkpt>
      <trkpt lat="44.12079" lon="5.32666">
        <ele>1066</ele>
        <time>2025-09-12T10:05:13.000Z</time>
      </trkpt>
      <trkpt lat="44.12091" lon="5.32695">
        <ele>1069</ele>
        <time>2025-09-12T10:05:40.000Z</time>
      </trkpt>
      <trkpt lat="44.12108" lon="5.32716">
        <ele>1071</ele>
        <time>2025-09-12T10:06:00.000Z</time>
      </trkpt>
      <trkpt lat="44.12125" lon="5.32738">
        <ele>1073</ele>
        <time>2025-09-12T10:06:25.000Z</time>
      </trkpt>
      <trkpt lat="44.12144" lon="5.32756">
        <ele>1073</ele>
        <time>2025-09-12T10:06:51.000Z</time>
      </trkpt>
      <trkpt lat="44.12164" lon="5.32774">
        <ele>1074</ele>
        <time>2025-09-12T10:07:14.000Z</time>
      </trkpt>
      <trkpt lat="44.12182" lon="5.32794">
        <ele>1075</ele>
        <time>2025-09-12T10:07:39.000Z</time>
      </trkpt>
      <trkpt lat="44.12199" lon="5.32813">
        <ele>1078</ele>
        <time>2025-09-12T10:08:03.000Z</time>
      </trkpt>
      <trkpt lat="44.1222" lon="5.32825">
        <ele>1078</ele>
        <time>2025-09-12T10:08:27.000Z</time>
      </trkpt>
      <trkpt lat="44.12239" lon="5.3284">
        <ele>1079</ele>
        <time>2025-09-12T10:09:21.000Z</time>
      </trkpt>
      <trkpt lat="44.12247" lon="5.32869">
        <ele>1081</ele>
        <time>2025-09-12T10:09:56.000Z</time>
      </trkpt>
      <trkpt lat="44.12253" lon="5.329">
        <ele>1083</ele>
        <time>2025-09-12T10:10:28.000Z</time>
      </trkpt>
      <trkpt lat="44.12261" lon="5.3293">
        <ele>1086</ele>
        <time>2025-09-12T10:10:50.000Z</time>
      </trkpt>
      <trkpt lat="44.12277" lon="5.32954">
        <ele>1087</ele>
        <time>2025-09-12T10:11:34.000Z</time>
      </trkpt>
      <trkpt lat="44.12289" lon="5.32982">
        <ele>1087</ele>
        <time>2025-09-12T10:12:00.000Z</time>
      </trkpt>
      <trkpt lat="44.12297" lon="5.33012">
        <ele>1089</ele>
        <time>2025-09-12T10:12:57.000Z</time>
      </trkpt>
      <trkpt lat="44.12305" lon="5.33043">
        <ele>1091</ele>
        <time>2025-09-12T10:13:34.000Z</time>
      </trkpt>
      <trkpt lat="44.12313" lon="5.33075">
        <ele>1093</ele>
        <time>2025-09-12T10:14:03.000Z</time>
      </trkpt>
      <trkpt lat="44.12315" lon="5.33106">
        <ele>1095</ele>
        <time>2025-09-12T10:14:39.000Z</time>
      </trkpt>
      <trkpt lat="44.12319" lon="5.33138">
        <ele>1098</ele>
        <time>2025-09-12T10:15:11.000Z</time>
      </trkpt>
      <trkpt lat="44.1232" lon="5.33169">
        <ele>1098</ele>
        <time>2025-09-12T10:15:41.000Z</time>
      </trkpt>
      <trkpt lat="44.12322" lon="5.332">
        <ele>1100</ele>
        <time>2025-09-12T10:16:05.000Z</time>
      </trkpt>
      <trkpt lat="44.12328" lon="5.33231">
        <ele>1101</ele>
        <time>2025-09-12T10:16:27.000Z</time>
      </trkpt>
      <trkpt lat="44.12323" lon="5.33261">
        <ele>1104</ele>
        <time>2025-09-12T10:16:47.000Z</time>
      </trkpt>
      <trkpt lat="44.12324" lon="5.33293">
        <ele>1105</ele>
        <time>2025-09-12T10:17:17.000Z</time>
      </trkpt>
      <trkpt lat="44.12322" lon="5.33326">
        <ele>1106</ele>
        <time>2025-09-12T10:17:41.000Z</time>
      </trkpt>
      <trkpt lat="44.1232" lon="5.33358">
        <ele>1108</ele>
        <time>2025-09-12T10:18:05.000Z</time>
      </trkpt>
      <trkpt lat="44.12322" lon="5.33389">
        <ele>1109</ele>
        <time>2025-09-12T10:18:49.000Z</time>
      </trkpt>
      <trkpt lat="44.12321" lon="5.33421">
        <ele>1111</ele>
        <time>2025-09-12T10:19:27.000Z</time>
      </trkpt>
      <trkpt lat="44.12328" lon="5.33454">
        <ele>1114</ele>
        <time>2025-09-12T10:19:59.000Z</time>
      </trkpt>
      <trkpt lat="44.12331" lon="5.33485">
        <ele>1116</ele>
        <time>2025-09-12T10:20:29.000Z</time>
      </trkpt>
      <trkpt lat="44.12335" lon="5.33515">
        <ele>1118</ele>
        <time>2025-09-12T10:21:00.000Z</time>
      </trkpt>
      <trkpt lat="44.12347" lon="5.33541">
        <ele>1120</ele>
        <time>2025-09-12T10:21:47.000Z</time>
      </trkpt>
      <trkpt lat="44.12361" lon="5.33565">
        <ele>1123</ele>
        <time>2025-09-12T10:22:17.000Z</time>
      </trkpt>
      <trkpt lat="44.12375" lon="5.3359">
        <ele>1125</ele>
        <time>2025-09-12T10:24:00.000Z</time>
      </trkpt>
      <trkpt lat="44.12388" lon="5.33616">
        <ele>1125</ele>
        <time>2025-09-12T10:24:25.000Z</time>
      </trkpt>
      <trkpt lat="44.12405" lon="5.33634">
        <ele>1125</ele>
        <time>2025-09-12T10:25:10.000Z</time>
      </trkpt>
      <trkpt lat="44.12418" lon="5.3366">
        <ele>1128</ele>
        <time>2025-09-12T10:25:50.000Z</time>
      </trkpt>
      <trkpt lat="44.12435" lon="5.33677">
        <ele>1131</ele>
        <time>2025-09-12T10:26:22.000Z</time>
      </trkpt>
      <trkpt lat="44.12457" lon="5.3368">
        <ele>1132</ele>
        <time>2025-09-12T10:26:52.000Z</time>
      </trkpt>
      <trkpt lat="44.12478" lon="5.3369">
        <ele>1133</ele>
        <time>2025-09-12T10:27:28.000Z</time>
      </trkpt>
      <trkpt lat="44.125" lon="5.33695">
        <ele>1136</ele>
        <time>2025-09-12T10:28:41.000Z</time>
      </trkpt>
      <trkpt lat="44.12522" lon="5.33691">
        <ele>1138</ele>
        <time>2025-09-12T10:30:08.000Z</time>
      </trkpt>
      <trkpt lat="44.12543" lon="5.337">
        <ele>1141</ele>
        <time>2025-09-12T10:30:38.000Z</time>
      </trkpt>
      <trkpt lat="44.12564" lon="5.33712">
        <ele>1144</ele>
        <time>2025-09-12T10:31:07.000Z</time>
      </trkpt>
      <trkpt lat="44.12586" lon="5.33724">
        <ele>1145</ele>
        <time>2025-09-12T10:31:38.000Z</time>
      </trkpt>
      <trkpt lat="44.12606" lon="5.33738">
        <ele>1145</ele>
        <time>2025-09-12T10:32:06.000Z</time>
      </trkpt>
      <trkpt lat="44.12621" lon="5.33761">
        <ele>1147</ele>
        <time>2025-09-12T10:32:44.000Z</time>
      </trkpt>
      <trkpt lat="44.12638" lon="5.33782">
        <ele>1149</ele>
        <time>2025-09-12T10:34:28.000Z</time>
      </trkpt>
      <trkpt lat="44.12658" lon="5.33797">
        <ele>1151</ele>
        <time>2025-09-12T10:35:22.000Z</time>
      </trkpt>
      <trkpt lat="44.1268" lon="5.33799">
        <ele>1153</ele>
        <time>2025-09-12T10:36:53.000Z</time>
      </trkpt>
      <trkpt lat="44.12703" lon="5.33804">
        <ele>1154</ele>
        <time>2025-09-12T10:37:59.000Z</time>
      </trkpt>
      <trkpt lat="44.12726" lon="5.3381">
        <ele>1158</ele>
        <time>2025-09-12T10:38:35.000Z</time>
      </trkpt>
      <trkpt lat="44.12747" lon="5.33816">
        <ele>1161</ele>
        <time>2025-09-12T10:39:14.000Z</time>
      </trkpt>
      <trkpt lat="44.12765" lon="5.33834">
        <ele>1163</ele>
        <time>2025-09-12T10:39:48.000Z</time>
      </trkpt>
      <trkpt lat="44.1277" lon="5.33856">
        <ele>1164</ele>
        <time>2025-09-12T10:41:19.000Z</time>
      </trkpt>
      <trkpt lat="44.12759" lon="5.33846">
        <ele>1163</ele>
        <time>2025-09-12T10:54:53.000Z</time>
      </trkpt>
      <trkpt lat="44.12774" lon="5.3383">
        <ele>1165</ele>
        <time>2025-09-12T11:39:21.000Z</time>
      </trkpt>
      <trkpt lat="44.12795" lon="5.33823">
        <ele>1168</ele>
        <time>2025-09-12T11:44:07.000Z</time>
      </trkpt>
      <trkpt lat="44.12817" lon="5.33828">
        <ele>1169</ele>
        <time>2025-09-12T11:46:47.000Z</time>
      </trkpt>
      <trkpt lat="44.1284" lon="5.33832">
        <ele>1172</ele>
        <time>2025-09-12T11:47:41.000Z</time>
      </trkpt>
      <trkpt lat="44.12862" lon="5.33832">
        <ele>1173</ele>
        <time>2025-09-12T11:49:26.000Z</time>
      </trkpt>
      <trkpt lat="44.12884" lon="5.33825">
        <ele>1173</ele>
        <time>2025-09-12T11:49:50.000Z</time>
      </trkpt>
      <trkpt lat="44.12907" lon="5.33822">
        <ele>1174</ele>
        <time>2025-09-12T11:50:23.000Z</time>
      </trkpt>
      <trkpt lat="44.1293" lon="5.33816">
        <ele>1176</ele>
        <time>2025-09-12T11:56:20.000Z</time>
      </trkpt>
      <trkpt lat="44.12953" lon="5.33813">
        <ele>1178</ele>
        <time>2025-09-12T11:57:38.000Z</time>
      </trkpt>
      <trkpt lat="44.12975" lon="5.33815">
        <ele>1180</ele>
        <time>2025-09-12T11:58:18.000Z</time>
      </trkpt>
      <trkpt lat="44.12997" lon="5.33815">
        <ele>1182</ele>
        <time>2025-09-12T11:59:06.000Z</time>
      </trkpt>
      <trkpt lat="44.13018" lon="5.33828">
        <ele>1183</ele>
        <time>2025-09-12T11:59:35.000Z</time>
      </trkpt>
      <trkpt lat="44.13038" lon="5.33842">
        <ele>1185</ele>
        <time>2025-09-12T12:00:03.000Z</time>
      </trkpt>
      <trkpt lat="44.1306" lon="5.33848">
        <ele>1187</ele>
        <time>2025-09-12T12:00:38.000Z</time>
      </trkpt>
      <trkpt lat="44.13082" lon="5.33852">
        <ele>1188</ele>
        <time>2025-09-12T12:01:10.000Z</time>
      </trkpt>
      <trkpt lat="44.13103" lon="5.3386">
        <ele>1190</ele>
        <time>2025-09-12T12:01:40.000Z</time>
      </trkpt>
      <trkpt lat="44.13119" lon="5.33882">
        <ele>1192</ele>
        <time>2025-09-12T12:02:08.000Z</time>
      </trkpt>
      <trkpt lat="44.1314" lon="5.33894">
        <ele>1194</ele>
        <time>2025-09-12T12:02:44.000Z</time>
      </trkpt>
      <trkpt lat="44.13159" lon="5.33909">
        <ele>1196</ele>
        <time>2025-09-12T12:03:16.000Z</time>
      </trkpt>
      <trkpt lat="44.13179" lon="5.33916">
        <ele>1199</ele>
        <time>2025-09-12T12:03:52.000Z</time>
      </trkpt>
      <trkpt lat="44.13191" lon="5.33941">
        <ele>1200</ele>
        <time>2025-09-12T12:04:26.000Z</time>
      </trkpt>
      <trkpt lat="44.13199" lon="5.3397">
        <ele>1203</ele>
        <time>2025-09-12T12:04:54.000Z</time>
      </trkpt>
      <trkpt lat="44.13215" lon="5.3399">
        <ele>1205</ele>
        <time>2025-09-12T12:05:24.000Z</time>
      </trkpt>
      <trkpt lat="44.13236" lon="5.34004">
        <ele>1206</ele>
        <time>2025-09-12T12:05:56.000Z</time>
      </trkpt>
      <trkpt lat="44.13257" lon="5.34012">
        <ele>1209</ele>
        <time>2025-09-12T12:07:08.000Z</time>
      </trkpt>
      <trkpt lat="44.13279" lon="5.34023">
        <ele>1213</ele>
        <time>2025-09-12T12:10:47.000Z</time>
      </trkpt>
      <trkpt lat="44.133" lon="5.34034">
        <ele>1216</ele>
        <time>2025-09-12T12:11:19.000Z</time>
      </trkpt>
      <trkpt lat="44.13322" lon="5.34042">
        <ele>1219</ele>
        <time>2025-09-12T12:11:58.000Z</time>
      </trkpt>
      <trkpt lat="44.13342" lon="5.34055">
        <ele>1222</ele>
        <time>2025-09-12T12:12:43.000Z</time>
      </trkpt>
      <trkpt lat="44.13364" lon="5.34054">
        <ele>1227</ele>
        <time>2025-09-12T12:13:21.000Z</time>
      </trkpt>
      <trkpt lat="44.13386" lon="5.34054">
        <ele>1230</ele>
        <time>2025-09-12T12:13:54.000Z</time>
      </trkpt>
      <trkpt lat="44.13408" lon="5.34059">
        <ele>1234</ele>
        <time>2025-09-12T12:14:58.000Z</time>
      </trkpt>
      <trkpt lat="44.1343" lon="5.34055">
        <ele>1237</ele>
        <time>2025-09-12T12:15:50.000Z</time>
      </trkpt>
      <trkpt lat="44.13453" lon="5.34047">
        <ele>1243</ele>
        <time>2025-09-12T12:16:44.000Z</time>
      </trkpt>
      <trkpt lat="44.13475" lon="5.34041">
        <ele>1248</ele>
        <time>2025-09-12T12:17:36.000Z</time>
      </trkpt>
      <trkpt lat="44.13498" lon="5.34039">
        <ele>1253</ele>
        <time>2025-09-12T12:18:12.000Z</time>
      </trkpt>
      <trkpt lat="44.13517" lon="5.34025">
        <ele>1257</ele>
        <time>2025-09-12T12:19:03.000Z</time>
      </trkpt>
      <trkpt lat="44.1354" lon="5.34019">
        <ele>1259</ele>
        <time>2025-09-12T12:19:43.000Z</time>
      </trkpt>
      <trkpt lat="44.1356" lon="5.34005">
        <ele>1262</ele>
        <time>2025-09-12T12:20:17.000Z</time>
      </trkpt>
      <trkpt lat="44.13579" lon="5.33987">
        <ele>1265</ele>
        <time>2025-09-12T12:20:49.000Z</time>
      </trkpt>
      <trkpt lat="44.13598" lon="5.33969">
        <ele>1266</ele>
        <time>2025-09-12T12:21:32.000Z</time>
      </trkpt>
      <trkpt lat="44.13617" lon="5.33967">
        <ele>1268</ele>
        <time>2025-09-12T12:23:47.000Z</time>
      </trkpt>
      <trkpt lat="44.13618" lon="5.3394">
        <ele>1268</ele>
        <time>2025-09-12T12:24:24.000Z</time>
      </trkpt>
      <trkpt lat="44.1362" lon="5.3391">
        <ele>1268</ele>
        <time>2025-09-12T12:24:51.000Z</time>
      </trkpt>
      <trkpt lat="44.13632" lon="5.33886">
        <ele>1268</ele>
        <time>2025-09-12T12:25:35.000Z</time>
      </trkpt>
      <trkpt lat="44.13653" lon="5.33885">
        <ele>1268</ele>
        <time>2025-09-12T12:26:07.000Z</time>
      </trkpt>
      <trkpt lat="44.13676" lon="5.33893">
        <ele>1268</ele>
        <time>2025-09-12T12:26:41.000Z</time>
      </trkpt>
      <trkpt lat="44.13699" lon="5.33896">
        <ele>1267</ele>
        <time>2025-09-12T12:27:11.000Z</time>
      </trkpt>
      <trkpt lat="44.13721" lon="5.33897">
        <ele>1266</ele>
        <time>2025-09-12T12:28:03.000Z</time>
      </trkpt>
      <trkpt lat="44.13743" lon="5.339">
        <ele>1265</ele>
        <time>2025-09-12T12:28:39.000Z</time>
      </trkpt>
      <trkpt lat="44.13764" lon="5.33893">
        <ele>1265</ele>
        <time>2025-09-12T12:30:06.000Z</time>
      </trkpt>
      <trkpt lat="44.13776" lon="5.33869">
        <ele>1265</ele>
        <time>2025-09-12T12:30:42.000Z</time>
      </trkpt>
      <trkpt lat="44.13782" lon="5.33848">
        <ele>1265</ele>
        <time>2025-09-12T12:31:12.000Z</time>
      </trkpt>
      <trkpt lat="44.13773" lon="5.33869">
        <ele>1265</ele>
        <time>2025-09-12T12:32:32.000Z</time>
      </trkpt>
      <trkpt lat="44.13764" lon="5.3389">
        <ele>1265</ele>
        <time>2025-09-12T12:33:02.000Z</time>
      </trkpt>
      <trkpt lat="44.13776" lon="5.33877">
        <ele>1266</ele>
        <time>2025-09-12T12:34:39.000Z</time>
      </trkpt>
      <trkpt lat="44.13783" lon="5.33847">
        <ele>1265</ele>
        <time>2025-09-12T12:35:05.000Z</time>
      </trkpt>
      <trkpt lat="44.13791" lon="5.33819">
        <ele>1264</ele>
        <time>2025-09-12T12:35:29.000Z</time>
      </trkpt>
      <trkpt lat="44.13796" lon="5.33788">
        <ele>1262</ele>
        <time>2025-09-12T12:36:13.000Z</time>
      </trkpt>
      <trkpt lat="44.1379" lon="5.33757">
        <ele>1261</ele>
        <time>2025-09-12T12:36:34.000Z</time>
      </trkpt>
      <trkpt lat="44.1378" lon="5.33729">
        <ele>1260</ele>
        <time>2025-09-12T12:36:56.000Z</time>
      </trkpt>
      <trkpt lat="44.13774" lon="5.33698">
        <ele>1259</ele>
        <time>2025-09-12T12:37:18.000Z</time>
      </trkpt>
      <trkpt lat="44.13778" lon="5.33666">
        <ele>1259</ele>
        <time>2025-09-12T12:37:44.000Z</time>
      </trkpt>
      <trkpt lat="44.13784" lon="5.33637">
        <ele>1258</ele>
        <time>2025-09-12T12:38:10.000Z</time>
      </trkpt>
      <trkpt lat="44.13801" lon="5.3362">
        <ele>1257</ele>
        <time>2025-09-12T12:38:52.000Z</time>
      </trkpt>
      <trkpt lat="44.13821" lon="5.33618">
        <ele>1254</ele>
        <time>2025-09-12T12:39:18.000Z</time>
      </trkpt>
      <trkpt lat="44.13831" lon="5.33594">
        <ele>1253</ele>
        <time>2025-09-12T12:39:42.000Z</time>
      </trkpt>
      <trkpt lat="44.13817" lon="5.33573">
        <ele>1252</ele>
        <time>2025-09-12T12:40:00.000Z</time>
      </trkpt>
      <trkpt lat="44.13801" lon="5.33551">
        <ele>1251</ele>
        <time>2025-09-12T12:40:28.000Z</time>
      </trkpt>
      <trkpt lat="44.1379" lon="5.33523">
        <ele>1250</ele>
        <time>2025-09-12T12:40:50.000Z</time>
      </trkpt>
      <trkpt lat="44.13782" lon="5.33497">
        <ele>1248</ele>
        <time>2025-09-12T12:43:12.000Z</time>
      </trkpt>
      <trkpt lat="44.13792" lon="5.33506">
        <ele>1251</ele>
        <time>2025-09-12T12:45:16.000Z</time>
      </trkpt>
      <trkpt lat="44.13787" lon="5.33483">
        <ele>1249</ele>
        <time>2025-09-12T12:47:12.000Z</time>
      </trkpt>
      <trkpt lat="44.13785" lon="5.33452">
        <ele>1248</ele>
        <time>2025-09-12T12:47:48.000Z</time>
      </trkpt>
      <trkpt lat="44.13783" lon="5.33419">
        <ele>1247</ele>
        <time>2025-09-12T12:48:42.000Z</time>
      </trkpt>
      <trkpt lat="44.13786" lon="5.33386">
        <ele>1247</ele>
        <time>2025-09-12T12:49:19.000Z</time>
      </trkpt>
      <trkpt lat="44.1379" lon="5.33355">
        <ele>1245</ele>
        <time>2025-09-12T12:49:53.000Z</time>
      </trkpt>
      <trkpt lat="44.13797" lon="5.33326">
        <ele>1243</ele>
        <time>2025-09-12T12:50:25.000Z</time>
      </trkpt>
      <trkpt lat="44.13806" lon="5.33297">
        <ele>1242</ele>
        <time>2025-09-12T12:50:51.000Z</time>
      </trkpt>
      <trkpt lat="44.13817" lon="5.3327">
        <ele>1241</ele>
        <time>2025-09-12T12:51:20.000Z</time>
      </trkpt>
      <trkpt lat="44.13831" lon="5.33245">
        <ele>1240</ele>
        <time>2025-09-12T12:51:45.000Z</time>
      </trkpt>
      <trkpt lat="44.13848" lon="5.33228">
        <ele>1239</ele>
        <time>2025-09-12T12:52:20.000Z</time>
      </trkpt>
      <trkpt lat="44.13867" lon="5.33225">
        <ele>1237</ele>
        <time>2025-09-12T12:52:45.000Z</time>
      </trkpt>
      <trkpt lat="44.13869" lon="5.33198">
        <ele>1237</ele>
        <time>2025-09-12T12:53:18.000Z</time>
      </trkpt>
      <trkpt lat="44.13858" lon="5.33172">
        <ele>1238</ele>
        <time>2025-09-12T12:55:42.000Z</time>
      </trkpt>
      <trkpt lat="44.13851" lon="5.33142">
        <ele>1238</ele>
        <time>2025-09-12T12:56:05.000Z</time>
      </trkpt>
      <trkpt lat="44.13851" lon="5.3311">
        <ele>1240</ele>
        <time>2025-09-12T12:56:33.000Z</time>
      </trkpt>
      <trkpt lat="44.13849" lon="5.33078">
        <ele>1241</ele>
        <time>2025-09-12T12:56:57.000Z</time>
      </trkpt>
      <trkpt lat="44.13851" lon="5.33047">
        <ele>1241</ele>
        <time>2025-09-12T12:57:23.000Z</time>
      </trkpt>
      <trkpt lat="44.13856" lon="5.33016">
        <ele>1242</ele>
        <time>2025-09-12T12:57:49.000Z</time>
      </trkpt>
      <trkpt lat="44.13859" lon="5.32984">
        <ele>1243</ele>
        <time>2025-09-12T12:58:15.000Z</time>
      </trkpt>
      <trkpt lat="44.13861" lon="5.32952">
        <ele>1245</ele>
        <time>2025-09-12T12:58:39.000Z</time>
      </trkpt>
      <trkpt lat="44.13861" lon="5.32921">
        <ele>1243</ele>
        <time>2025-09-12T12:59:17.000Z</time>
      </trkpt>
      <trkpt lat="44.13857" lon="5.32889">
        <ele>1243</ele>
        <time>2025-09-12T12:59:47.000Z</time>
      </trkpt>
      <trkpt lat="44.13853" lon="5.32857">
        <ele>1243</ele>
        <time>2025-09-12T13:00:15.000Z</time>
      </trkpt>
      <trkpt lat="44.13848" lon="5.32825">
        <ele>1245</ele>
        <time>2025-09-12T13:00:51.000Z</time>
      </trkpt>
      <trkpt lat="44.13844" lon="5.32794">
        <ele>1245</ele>
        <time>2025-09-12T13:01:17.000Z</time>
      </trkpt>
      <trkpt lat="44.13838" lon="5.32764">
        <ele>1245</ele>
        <time>2025-09-12T13:01:48.000Z</time>
      </trkpt>
      <trkpt lat="44.13834" lon="5.32733">
        <ele>1245</ele>
        <time>2025-09-12T13:02:12.000Z</time>
      </trkpt>
      <trkpt lat="44.13828" lon="5.32702">
        <ele>1244</ele>
        <time>2025-09-12T13:02:37.000Z</time>
      </trkpt>
      <trkpt lat="44.1382" lon="5.32673">
        <ele>1246</ele>
        <time>2025-09-12T13:03:00.000Z</time>
      </trkpt>
      <trkpt lat="44.13807" lon="5.32649">
        <ele>1245</ele>
        <time>2025-09-12T13:03:21.000Z</time>
      </trkpt>
      <trkpt lat="44.13793" lon="5.32623">
        <ele>1245</ele>
        <time>2025-09-12T13:03:48.000Z</time>
      </trkpt>
      <trkpt lat="44.13781" lon="5.32596">
        <ele>1244</ele>
        <time>2025-09-12T13:04:12.000Z</time>
      </trkpt>
      <trkpt lat="44.13773" lon="5.32566">
        <ele>1244</ele>
        <time>2025-09-12T13:04:36.000Z</time>
      </trkpt>
      <trkpt lat="44.13766" lon="5.32536">
        <ele>1243</ele>
        <time>2025-09-12T13:05:01.000Z</time>
      </trkpt>
      <trkpt lat="44.13766" lon="5.32504">
        <ele>1240</ele>
        <time>2025-09-12T13:05:34.000Z</time>
      </trkpt>
      <trkpt lat="44.13761" lon="5.32474">
        <ele>1233</ele>
        <time>2025-09-12T13:06:02.000Z</time>
      </trkpt>
      <trkpt lat="44.13756" lon="5.32443">
        <ele>1231</ele>
        <time>2025-09-12T13:06:32.000Z</time>
      </trkpt>
      <trkpt lat="44.13751" lon="5.32412">
        <ele>1228</ele>
        <time>2025-09-12T13:06:58.000Z</time>
      </trkpt>
      <trkpt lat="44.13748" lon="5.32381">
        <ele>1225</ele>
        <time>2025-09-12T13:07:30.000Z</time>
      </trkpt>
      <trkpt lat="44.13754" lon="5.3235">
        <ele>1223</ele>
        <time>2025-09-12T13:07:56.000Z</time>
      </trkpt>
      <trkpt lat="44.13756" lon="5.32319">
        <ele>1221</ele>
        <time>2025-09-12T13:08:25.000Z</time>
      </trkpt>
      <trkpt lat="44.13758" lon="5.32286">
        <ele>1218</ele>
        <time>2025-09-12T13:08:54.000Z</time>
      </trkpt>
      <trkpt lat="44.13758" lon="5.32255">
        <ele>1219</ele>
        <time>2025-09-12T13:09:22.000Z</time>
      </trkpt>
      <trkpt lat="44.13751" lon="5.32225">
        <ele>1218</ele>
        <time>2025-09-12T13:09:53.000Z</time>
      </trkpt>
      <trkpt lat="44.13736" lon="5.322">
        <ele>1211</ele>
        <time>2025-09-12T13:10:28.000Z</time>
      </trkpt>
      <trkpt lat="44.13719" lon="5.32178">
        <ele>1205</ele>
        <time>2025-09-12T13:11:06.000Z</time>
      </trkpt>
      <trkpt lat="44.13704" lon="5.32154">
        <ele>1203</ele>
        <time>2025-09-12T13:12:22.000Z</time>
      </trkpt>
      <trkpt lat="44.13695" lon="5.32124">
        <ele>1198</ele>
        <time>2025-09-12T13:13:31.000Z</time>
      </trkpt>
      <trkpt lat="44.13691" lon="5.32093">
        <ele>1193</ele>
        <time>2025-09-12T13:14:10.000Z</time>
      </trkpt>
      <trkpt lat="44.13692" lon="5.32062">
        <ele>1187</ele>
        <time>2025-09-12T13:14:50.000Z</time>
      </trkpt>
      <trkpt lat="44.13693" lon="5.32031">
        <ele>1180</ele>
        <time>2025-09-12T13:15:40.000Z</time>
      </trkpt>
      <trkpt lat="44.13688" lon="5.32001">
        <ele>1177</ele>
        <time>2025-09-12T13:16:20.000Z</time>
      </trkpt>
      <trkpt lat="44.13688" lon="5.31969">
        <ele>1171</ele>
        <time>2025-09-12T13:17:02.000Z</time>
      </trkpt>
      <trkpt lat="44.13687" lon="5.31937">
        <ele>1166</ele>
        <time>2025-09-12T13:17:38.000Z</time>
      </trkpt>
      <trkpt lat="44.13689" lon="5.31907">
        <ele>1162</ele>
        <time>2025-09-12T13:18:14.000Z</time>
      </trkpt>
      <trkpt lat="44.13693" lon="5.31877">
        <ele>1160</ele>
        <time>2025-09-12T13:19:24.000Z</time>
      </trkpt>
      <trkpt lat="44.13695" lon="5.31845">
        <ele>1161</ele>
        <time>2025-09-12T13:26:29.000Z</time>
      </trkpt>
      <trkpt lat="44.13704" lon="5.31813">
        <ele>1163</ele>
        <time>2025-09-12T13:27:00.000Z</time>
      </trkpt>
      <trkpt lat="44.13703" lon="5.31781">
        <ele>1165</ele>
        <time>2025-09-12T13:27:20.000Z</time>
      </trkpt>
      <trkpt lat="44.13699" lon="5.3175">
        <ele>1169</ele>
        <time>2025-09-12T13:27:44.000Z</time>
      </trkpt>
      <trkpt lat="44.13687" lon="5.31723">
        <ele>1169</ele>
        <time>2025-09-12T13:28:16.000Z</time>
      </trkpt>
      <trkpt lat="44.13671" lon="5.31702">
        <ele>1168</ele>
        <time>2025-09-12T13:28:51.000Z</time>
      </trkpt>
      <trkpt lat="44.13656" lon="5.31677">
        <ele>1175</ele>
        <time>2025-09-12T13:29:18.000Z</time>
      </trkpt>
      <trkpt lat="44.1364" lon="5.31655">
        <ele>1179</ele>
        <time>2025-09-12T13:29:48.000Z</time>
      </trkpt>
      <trkpt lat="44.13621" lon="5.31639">
        <ele>1181</ele>
        <time>2025-09-12T13:30:16.000Z</time>
      </trkpt>
      <trkpt lat="44.136" lon="5.31628">
        <ele>1178</ele>
        <time>2025-09-12T13:30:40.000Z</time>
      </trkpt>
      <trkpt lat="44.1358" lon="5.31615">
        <ele>1180</ele>
        <time>2025-09-12T13:31:11.000Z</time>
      </trkpt>
      <trkpt lat="44.13558" lon="5.31607">
        <ele>1177</ele>
        <time>2025-09-12T13:31:44.000Z</time>
      </trkpt>
      <trkpt lat="44.13537" lon="5.31594">
        <ele>1178</ele>
        <time>2025-09-12T13:32:14.000Z</time>
      </trkpt>
      <trkpt lat="44.13517" lon="5.3158">
        <ele>1182</ele>
        <time>2025-09-12T13:32:44.000Z</time>
      </trkpt>
      <trkpt lat="44.13497" lon="5.31568">
        <ele>1184</ele>
        <time>2025-09-12T13:33:14.000Z</time>
      </trkpt>
      <trkpt lat="44.13483" lon="5.31546">
        <ele>1195</ele>
        <time>2025-09-12T13:33:44.000Z</time>
      </trkpt>
      <trkpt lat="44.13464" lon="5.31537">
        <ele>1195</ele>
        <time>2025-09-12T13:34:52.000Z</time>
      </trkpt>
      <trkpt lat="44.13451" lon="5.31514">
        <ele>1201</ele>
        <time>2025-09-12T13:35:32.000Z</time>
      </trkpt>
      <trkpt lat="44.13435" lon="5.31493">
        <ele>1207</ele>
        <time>2025-09-12T13:36:36.000Z</time>
      </trkpt>
      <trkpt lat="44.13427" lon="5.31465">
        <ele>1212</ele>
        <time>2025-09-12T13:38:06.000Z</time>
      </trkpt>
      <trkpt lat="44.13414" lon="5.3144">
        <ele>1212</ele>
        <time>2025-09-12T13:51:24.000Z</time>
      </trkpt>
      <trkpt lat="44.13405" lon="5.31411">
        <ele>1210</ele>
        <time>2025-09-12T13:51:58.000Z</time>
      </trkpt>
      <trkpt lat="44.13406" lon="5.31379">
        <ele>1209</ele>
        <time>2025-09-12T13:52:26.000Z</time>
      </trkpt>
      <trkpt lat="44.13411" lon="5.31348">
        <ele>1208</ele>
        <time>2025-09-12T13:52:50.000Z</time>
      </trkpt>
      <trkpt lat="44.13418" lon="5.31317">
        <ele>1207</ele>
        <time>2025-09-12T13:53:14.000Z</time>
      </trkpt>
      <trkpt lat="44.13425" lon="5.31287">
        <ele>1207</ele>
        <time>2025-09-12T13:53:36.000Z</time>
      </trkpt>
      <trkpt lat="44.13431" lon="5.31257">
        <ele>1207</ele>
        <time>2025-09-12T13:54:00.000Z</time>
      </trkpt>
      <trkpt lat="44.13434" lon="5.31226">
        <ele>1205</ele>
        <time>2025-09-12T13:54:28.000Z</time>
      </trkpt>
      <trkpt lat="44.13438" lon="5.31196">
        <ele>1203</ele>
        <time>2025-09-12T13:54:56.000Z</time>
      </trkpt>
      <trkpt lat="44.13447" lon="5.31166">
        <ele>1202</ele>
        <time>2025-09-12T13:55:18.000Z</time>
      </trkpt>
      <trkpt lat="44.13452" lon="5.31136">
        <ele>1203</ele>
        <time>2025-09-12T13:55:44.000Z</time>
      </trkpt>
      <trkpt lat="44.13458" lon="5.31105">
        <ele>1201</ele>
        <time>2025-09-12T13:56:08.000Z</time>
      </trkpt>
      <trkpt lat="44.13463" lon="5.31074">
        <ele>1200</ele>
        <time>2025-09-12T13:56:28.000Z</time>
      </trkpt>
      <trkpt lat="44.1347" lon="5.31042">
        <ele>1200</ele>
        <time>2025-09-12T13:56:52.000Z</time>
      </trkpt>
      <trkpt lat="44.13477" lon="5.31012">
        <ele>1200</ele>
        <time>2025-09-12T13:57:16.000Z</time>
      </trkpt>
      <trkpt lat="44.13481" lon="5.30981">
        <ele>1200</ele>
        <time>2025-09-12T13:57:36.000Z</time>
      </trkpt>
      <trkpt lat="44.13485" lon="5.3095">
        <ele>1201</ele>
        <time>2025-09-12T13:58:48.000Z</time>
      </trkpt>
      <trkpt lat="44.13486" lon="5.30918">
        <ele>1201</ele>
        <time>2025-09-12T14:00:03.000Z</time>
      </trkpt>
      <trkpt lat="44.13491" lon="5.30887">
        <ele>1201</ele>
        <time>2025-09-12T14:00:28.000Z</time>
      </trkpt>
      <trkpt lat="44.13498" lon="5.30856">
        <ele>1201</ele>
        <time>2025-09-12T14:01:30.000Z</time>
      </trkpt>
      <trkpt lat="44.13502" lon="5.30825">
        <ele>1201</ele>
        <time>2025-09-12T14:01:54.000Z</time>
      </trkpt>
      <trkpt lat="44.13502" lon="5.30793">
        <ele>1199</ele>
        <time>2025-09-12T14:02:22.000Z</time>
      </trkpt>
      <trkpt lat="44.13505" lon="5.30762">
        <ele>1199</ele>
        <time>2025-09-12T14:02:46.000Z</time>
      </trkpt>
      <trkpt lat="44.13514" lon="5.30731">
        <ele>1199</ele>
        <time>2025-09-12T14:03:10.000Z</time>
      </trkpt>
      <trkpt lat="44.13522" lon="5.30701">
        <ele>1197</ele>
        <time>2025-09-12T14:03:33.000Z</time>
      </trkpt>
      <trkpt lat="44.1353" lon="5.30672">
        <ele>1196</ele>
        <time>2025-09-12T14:04:22.000Z</time>
      </trkpt>
      <trkpt lat="44.13523" lon="5.30643">
        <ele>1194</ele>
        <time>2025-09-12T14:05:04.000Z</time>
      </trkpt>
      <trkpt lat="44.13516" lon="5.30612">
        <ele>1193</ele>
        <time>2025-09-12T14:05:30.000Z</time>
      </trkpt>
      <trkpt lat="44.13506" lon="5.30584">
        <ele>1191</ele>
        <time>2025-09-12T14:06:03.000Z</time>
      </trkpt>
      <trkpt lat="44.13495" lon="5.30557">
        <ele>1190</ele>
        <time>2025-09-12T14:06:26.000Z</time>
      </trkpt>
      <trkpt lat="44.13489" lon="5.30526">
        <ele>1189</ele>
        <time>2025-09-12T14:07:06.000Z</time>
      </trkpt>
      <trkpt lat="44.13484" lon="5.30494">
        <ele>1188</ele>
        <time>2025-09-12T14:07:40.000Z</time>
      </trkpt>
      <trkpt lat="44.13478" lon="5.3046">
        <ele>1187</ele>
        <time>2025-09-12T14:08:10.000Z</time>
      </trkpt>
      <trkpt lat="44.13471" lon="5.3043">
        <ele>1187</ele>
        <time>2025-09-12T14:10:08.000Z</time>
      </trkpt>
      <trkpt lat="44.13466" lon="5.304">
        <ele>1187</ele>
        <time>2025-09-12T14:10:50.000Z</time>
      </trkpt>
      <trkpt lat="44.13456" lon="5.30373">
        <ele>1185</ele>
        <time>2025-09-12T14:11:17.000Z</time>
      </trkpt>
      <trkpt lat="44.13441" lon="5.30352">
        <ele>1183</ele>
        <time>2025-09-12T14:12:18.000Z</time>
      </trkpt>
      <trkpt lat="44.13431" lon="5.30324">
        <ele>1182</ele>
        <time>2025-09-12T14:12:46.000Z</time>
      </trkpt>
      <trkpt lat="44.13417" lon="5.30299">
        <ele>1180</ele>
        <time>2025-09-12T14:13:14.000Z</time>
      </trkpt>
      <trkpt lat="44.13406" lon="5.30272">
        <ele>1177</ele>
        <time>2025-09-12T14:13:42.000Z</time>
      </trkpt>
      <trkpt lat="44.13404" lon="5.30242">
        <ele>1175</ele>
        <time>2025-09-12T14:14:10.000Z</time>
      </trkpt>
      <trkpt lat="44.13409" lon="5.30212">
        <ele>1174</ele>
        <time>2025-09-12T14:15:00.000Z</time>
      </trkpt>
      <trkpt lat="44.13424" lon="5.30189">
        <ele>1172</ele>
        <time>2025-09-12T14:15:22.000Z</time>
      </trkpt>
      <trkpt lat="44.13435" lon="5.30161">
        <ele>1168</ele>
        <time>2025-09-12T14:16:02.000Z</time>
      </trkpt>
      <trkpt lat="44.13443" lon="5.30128">
        <ele>1163</ele>
        <time>2025-09-12T14:16:42.000Z</time>
      </trkpt>
      <trkpt lat="44.13454" lon="5.301">
        <ele>1155</ele>
        <time>2025-09-12T14:18:21.000Z</time>
      </trkpt>
      <trkpt lat="44.13453" lon="5.30069">
        <ele>1150</ele>
        <time>2025-09-12T14:20:00.000Z</time>
      </trkpt>
      <trkpt lat="44.13459" lon="5.3004">
        <ele>1142</ele>
        <time>2025-09-12T14:20:43.000Z</time>
      </trkpt>
    </trkseg>
  </trk>
</gpx>